sensor_id;sensor_type;location;lat;lon;timestamp;temperature;humidity
12164;DHT22;6145;50.192;10.064;2022-08-01T00:01:31;23.00;52.40
12164;DHT22;6145;50.192;10.064;2022-08-01T00:03:57;22.90;52.40
12164;DHT22;6145;50.192;10.064;2022-08-01T00:06:24;22.90;52.40
12164;DHT22;6145;50.192;10.064;2022-08-01T00:08:51;22.90;52.40
12164;DHT22;6145;50.192;10.064;2022-08-01T00:11:19;22.80;53.00
12164;DHT22;6145;50.192;10.064;2022-08-01T00:13:46;22.80;52.50
12164;DHT22;6145;50.192;10.064;2022-08-01T00:16:12;22.80;52.50
12164;DHT22;6145;50.192;10.064;2022-08-01T00:18:39;22.80;52.60
12164;DHT22;6145;50.192;10.064;2022-08-01T00:21:06;22.70;52.60
12164;DHT22;6145;50.192;10.064;2022-08-01T00:23:32;22.70;52.70
12164;DHT22;6145;50.192;10.064;2022-08-01T00:25:59;22.70;53.40
12164;DHT22;6145;50.192;10.064;2022-08-01T00:28:27;22.60;52.70
12164;DHT22;6145;50.192;10.064;2022-08-01T00:30:54;22.60;53.00
12164;DHT22;6145;50.192;10.064;2022-08-01T00:33:21;22.60;52.90
12164;DHT22;6145;50.192;10.064;2022-08-01T00:35:48;22.50;52.90
12164;DHT22;6145;50.192;10.064;2022-08-01T00:38:14;22.50;53.00
12164;DHT22;6145;50.192;10.064;2022-08-01T00:40:41;22.50;53.10
12164;DHT22;6145;50.192;10.064;2022-08-01T00:43:09;22.50;53.20
12164;DHT22;6145;50.192;10.064;2022-08-01T00:45:37;22.40;53.20
12164;DHT22;6145;50.192;10.064;2022-08-01T00:48:04;22.30;53.30
12164;DHT22;6145;50.192;10.064;2022-08-01T00:50:31;22.30;53.40
12164;DHT22;6145;50.192;10.064;2022-08-01T00:52:58;22.30;53.50
12164;DHT22;6145;50.192;10.064;2022-08-01T00:55:26;22.20;53.60
12164;DHT22;6145;50.192;10.064;2022-08-01T00:57:53;22.20;53.70
12164;DHT22;6145;50.192;10.064;2022-08-01T01:00:21;22.20;53.80
12164;DHT22;6145;50.192;10.064;2022-08-01T01:02:49;22.10;53.80
12164;DHT22;6145;50.192;10.064;2022-08-01T01:05:16;22.10;53.90
12164;DHT22;6145;50.192;10.064;2022-08-01T01:07:48;22.10;54.00
12164;DHT22;6145;50.192;10.064;2022-08-01T01:10:21;22.00;54.10
12164;DHT22;6145;50.192;10.064;2022-08-01T01:12:54;22.00;54.20
12164;DHT22;6145;50.192;10.064;2022-08-01T01:15:28;22.00;54.30
12164;DHT22;6145;50.192;10.064;2022-08-01T01:18:02;21.90;54.40
12164;DHT22;6145;50.192;10.064;2022-08-01T01:20:33;21.90;54.50
12164;DHT22;6145;50.192;10.064;2022-08-01T01:23:12;21.90;54.60
12164;DHT22;6145;50.192;10.064;2022-08-01T01:26:01;21.80;54.60
12164;DHT22;6145;50.192;10.064;2022-08-01T01:28:35;21.80;54.70
12164;DHT22;6145;50.192;10.064;2022-08-01T01:31:10;21.80;54.90
12164;DHT22;6145;50.192;10.064;2022-08-01T01:33:39;21.70;54.90
12164;DHT22;6145;50.192;10.064;2022-08-01T01:36:11;21.70;55.00
12164;DHT22;6145;50.192;10.064;2022-08-01T01:38:42;21.60;55.00
12164;DHT22;6145;50.192;10.064;2022-08-01T01:41:11;21.60;55.20
12164;DHT22;6145;50.192;10.064;2022-08-01T01:43:40;21.60;55.30
12164;DHT22;6145;50.192;10.064;2022-08-01T01:46:10;21.50;55.30
12164;DHT22;6145;50.192;10.064;2022-08-01T01:48:38;21.50;55.50
12164;DHT22;6145;50.192;10.064;2022-08-01T01:51:07;21.50;55.50
12164;DHT22;6145;50.192;10.064;2022-08-01T01:53:34;21.50;55.70
12164;DHT22;6145;50.192;10.064;2022-08-01T01:56:03;21.40;55.70
12164;DHT22;6145;50.192;10.064;2022-08-01T01:58:31;21.40;55.80
12164;DHT22;6145;50.192;10.064;2022-08-01T02:00:59;21.40;55.90
12164;DHT22;6145;50.192;10.064;2022-08-01T02:03:30;21.30;56.00
12164;DHT22;6145;50.192;10.064;2022-08-01T02:05:57;21.30;56.20
12164;DHT22;6145;50.192;10.064;2022-08-01T02:08:25;21.30;56.30
12164;DHT22;6145;50.192;10.064;2022-08-01T02:10:55;21.20;56.40
12164;DHT22;6145;50.192;10.064;2022-08-01T02:13:40;21.20;56.50
12164;DHT22;6145;50.192;10.064;2022-08-01T02:16:08;21.20;56.70
12164;DHT22;6145;50.192;10.064;2022-08-01T02:18:38;21.20;56.80
12164;DHT22;6145;50.192;10.064;2022-08-01T02:21:09;21.10;56.80
12164;DHT22;6145;50.192;10.064;2022-08-01T02:23:38;21.10;57.00
12164;DHT22;6145;50.192;10.064;2022-08-01T02:26:08;21.10;57.10
12164;DHT22;6145;50.192;10.064;2022-08-01T02:28:40;21.00;57.10
12164;DHT22;6145;50.192;10.064;2022-08-01T02:31:10;21.00;57.20
12164;DHT22;6145;50.192;10.064;2022-08-01T02:33:43;21.00;57.30
12164;DHT22;6145;50.192;10.064;2022-08-01T02:36:11;21.00;57.40
12164;DHT22;6145;50.192;10.064;2022-08-01T02:38:41;21.00;57.50
12164;DHT22;6145;50.192;10.064;2022-08-01T02:41:11;21.00;57.50
12164;DHT22;6145;50.192;10.064;2022-08-01T02:43:43;20.90;57.60
12164;DHT22;6145;50.192;10.064;2022-08-01T02:46:17;20.90;57.70
12164;DHT22;6145;50.192;10.064;2022-08-01T02:48:48;20.90;57.80
12164;DHT22;6145;50.192;10.064;2022-08-01T02:51:19;20.80;57.80
12164;DHT22;6145;50.192;10.064;2022-08-01T02:53:48;20.80;58.00
12164;DHT22;6145;50.192;10.064;2022-08-01T02:56:17;20.70;58.20
12164;DHT22;6145;50.192;10.064;2022-08-01T02:58:46;20.70;58.30
12164;DHT22;6145;50.192;10.064;2022-08-01T03:01:14;20.70;58.50
12164;DHT22;6145;50.192;10.064;2022-08-01T03:03:41;20.70;58.60
12164;DHT22;6145;50.192;10.064;2022-08-01T03:06:10;20.70;58.60
12164;DHT22;6145;50.192;10.064;2022-08-01T03:08:38;20.70;58.70
12164;DHT22;6145;50.192;10.064;2022-08-01T03:11:06;20.60;58.70
12164;DHT22;6145;50.192;10.064;2022-08-01T03:13:35;20.60;58.70
12164;DHT22;6145;50.192;10.064;2022-08-01T03:16:02;20.60;58.80
12164;DHT22;6145;50.192;10.064;2022-08-01T03:18:31;20.60;58.90
12164;DHT22;6145;50.192;10.064;2022-08-01T03:20:59;20.60;59.00
12164;DHT22;6145;50.192;10.064;2022-08-01T03:23:30;20.60;59.00
12164;DHT22;6145;50.192;10.064;2022-08-01T03:25:59;20.60;59.10
12164;DHT22;6145;50.192;10.064;2022-08-01T03:28:29;20.70;59.20
12164;DHT22;6145;50.192;10.064;2022-08-01T03:30:57;20.60;59.20
12164;DHT22;6145;50.192;10.064;2022-08-01T03:33:25;20.50;59.20
12164;DHT22;6145;50.192;10.064;2022-08-01T03:35:53;20.60;59.40
12164;DHT22;6145;50.192;10.064;2022-08-01T03:38:23;20.50;59.30
12164;DHT22;6145;50.192;10.064;2022-08-01T03:40:55;20.60;59.40
12164;DHT22;6145;50.192;10.064;2022-08-01T03:43:27;20.60;59.40
12164;DHT22;6145;50.192;10.064;2022-08-01T03:45:59;20.60;59.50
12164;DHT22;6145;50.192;10.064;2022-08-01T03:48:29;20.60;59.50
12164;DHT22;6145;50.192;10.064;2022-08-01T03:50:59;20.60;59.50
12164;DHT22;6145;50.192;10.064;2022-08-01T03:53:30;20.60;59.50
12164;DHT22;6145;50.192;10.064;2022-08-01T03:56:01;20.60;59.50
12164;DHT22;6145;50.192;10.064;2022-08-01T03:58:29;20.60;59.50
12164;DHT22;6145;50.192;10.064;2022-08-01T04:00:56;20.60;59.60
12164;DHT22;6145;50.192;10.064;2022-08-01T04:03:24;20.60;59.70
12164;DHT22;6145;50.192;10.064;2022-08-01T04:05:51;20.60;59.70
12164;DHT22;6145;50.192;10.064;2022-08-01T04:08:17;20.60;59.80
12164;DHT22;6145;50.192;10.064;2022-08-01T04:10:44;20.60;59.90
12164;DHT22;6145;50.192;10.064;2022-08-01T04:13:12;20.60;60.10
12164;DHT22;6145;50.192;10.064;2022-08-01T04:15:39;20.50;60.00
12164;DHT22;6145;50.192;10.064;2022-08-01T04:18:06;20.60;60.60
12164;DHT22;6145;50.192;10.064;2022-08-01T04:20:32;20.60;60.60
12164;DHT22;6145;50.192;10.064;2022-08-01T04:22:59;20.50;60.60
12164;DHT22;6145;50.192;10.064;2022-08-01T04:25:29;20.50;60.90
12164;DHT22;6145;50.192;10.064;2022-08-01T04:28:00;20.60;61.20
12164;DHT22;6145;50.192;10.064;2022-08-01T04:30:33;20.50;61.60
12164;DHT22;6145;50.192;10.064;2022-08-01T04:33:03;20.40;62.10
12164;DHT22;6145;50.192;10.064;2022-08-01T04:35:32;20.40;62.40
12164;DHT22;6145;50.192;10.064;2022-08-01T04:38:01;20.30;62.80
12164;DHT22;6145;50.192;10.064;2022-08-01T04:40:29;20.30;63.00
12164;DHT22;6145;50.192;10.064;2022-08-01T04:42:57;20.30;63.20
12164;DHT22;6145;50.192;10.064;2022-08-01T04:45:24;20.20;63.30
12164;DHT22;6145;50.192;10.064;2022-08-01T04:47:53;20.20;63.70
12164;DHT22;6145;50.192;10.064;2022-08-01T04:50:20;20.20;63.90
12164;DHT22;6145;50.192;10.064;2022-08-01T04:52:48;20.20;64.90
12164;DHT22;6145;50.192;10.064;2022-08-01T04:55:16;20.20;64.60
12164;DHT22;6145;50.192;10.064;2022-08-01T04:57:44;20.10;64.90
12164;DHT22;6145;50.192;10.064;2022-08-01T05:00:13;20.10;65.10
12164;DHT22;6145;50.192;10.064;2022-08-01T05:02:42;20.10;65.50
12164;DHT22;6145;50.192;10.064;2022-08-01T05:05:10;20.10;66.00
12164;DHT22;6145;50.192;10.064;2022-08-01T05:07:37;20.10;66.00
12164;DHT22;6145;50.192;10.064;2022-08-01T05:10:05;19.60;65.50
12164;DHT22;6145;50.192;10.064;2022-08-01T05:12:32;20.20;65.90
12164;DHT22;6145;50.192;10.064;2022-08-01T05:14:59;20.20;65.70
12164;DHT22;6145;50.192;10.064;2022-08-01T05:17:27;20.30;65.90
12164;DHT22;6145;50.192;10.064;2022-08-01T05:19:55;20.30;65.80
12164;DHT22;6145;50.192;10.064;2022-08-01T05:22:25;20.30;65.80
12164;DHT22;6145;50.192;10.064;2022-08-01T05:24:52;20.40;65.90
12164;DHT22;6145;50.192;10.064;2022-08-01T05:27:19;20.40;65.90
12164;DHT22;6145;50.192;10.064;2022-08-01T05:29:45;20.50;66.10
12164;DHT22;6145;50.192;10.064;2022-08-01T05:32:12;20.50;66.00
12164;DHT22;6145;50.192;10.064;2022-08-01T05:34:39;20.50;66.30
12164;DHT22;6145;50.192;10.064;2022-08-01T05:37:06;20.60;66.50
12164;DHT22;6145;50.192;10.064;2022-08-01T05:39:34;20.60;66.70
12164;DHT22;6145;50.192;10.064;2022-08-01T05:42:00;20.70;66.50
12164;DHT22;6145;50.192;10.064;2022-08-01T05:44:27;20.70;66.40
12164;DHT22;6145;50.192;10.064;2022-08-01T05:46:54;20.80;66.50
12164;DHT22;6145;50.192;10.064;2022-08-01T05:49:21;20.90;66.80
12164;DHT22;6145;50.192;10.064;2022-08-01T05:51:48;21.00;68.30
12164;DHT22;6145;50.192;10.064;2022-08-01T05:54:14;21.20;70.00
12164;DHT22;6145;50.192;10.064;2022-08-01T05:56:42;21.50;70.90
12164;DHT22;6145;50.192;10.064;2022-08-01T05:59:09;21.90;70.80
12164;DHT22;6145;50.192;10.064;2022-08-01T06:01:36;22.40;69.80
12164;DHT22;6145;50.192;10.064;2022-08-01T06:04:03;22.90;67.50
12164;DHT22;6145;50.192;10.064;2022-08-01T06:06:30;23.20;64.90
12164;DHT22;6145;50.192;10.064;2022-08-01T06:08:57;23.50;64.90
12164;DHT22;6145;50.192;10.064;2022-08-01T06:11:23;23.80;64.10
12164;DHT22;6145;50.192;10.064;2022-08-01T06:13:51;24.00;64.50
12164;DHT22;6145;50.192;10.064;2022-08-01T06:16:19;24.40;65.60
12164;DHT22;6145;50.192;10.064;2022-08-01T06:18:45;24.80;63.40
12164;DHT22;6145;50.192;10.064;2022-08-01T06:21:12;25.20;62.80
12164;DHT22;6145;50.192;10.064;2022-08-01T06:23:39;25.50;60.50
12164;DHT22;6145;50.192;10.064;2022-08-01T06:26:06;25.70;59.30
12164;DHT22;6145;50.192;10.064;2022-08-01T06:28:33;25.80;59.20
12164;DHT22;6145;50.192;10.064;2022-08-01T06:31:02;26.00;58.90
12164;DHT22;6145;50.192;10.064;2022-08-01T06:33:29;26.00;57.70
12164;DHT22;6145;50.192;10.064;2022-08-01T06:35:56;26.10;57.40
12164;DHT22;6145;50.192;10.064;2022-08-01T06:38:22;26.20;57.50
12164;DHT22;6145;50.192;10.064;2022-08-01T06:40:50;26.20;57.40
12164;DHT22;6145;50.192;10.064;2022-08-01T06:43:16;26.40;58.50
12164;DHT22;6145;50.192;10.064;2022-08-01T06:45:44;26.60;57.50
12164;DHT22;6145;50.192;10.064;2022-08-01T06:48:13;26.70;56.40
12164;DHT22;6145;50.192;10.064;2022-08-01T06:50:40;26.70;56.20
12164;DHT22;6145;50.192;10.064;2022-08-01T06:53:06;26.80;56.00
12164;DHT22;6145;50.192;10.064;2022-08-01T06:55:33;26.80;55.80
12164;DHT22;6145;50.192;10.064;2022-08-01T06:58:00;26.80;55.50
12164;DHT22;6145;50.192;10.064;2022-08-01T07:00:27;26.90;55.20
12164;DHT22;6145;50.192;10.064;2022-08-01T07:02:55;26.80;55.10
12164;DHT22;6145;50.192;10.064;2022-08-01T07:05:23;26.80;55.20
12164;DHT22;6145;50.192;10.064;2022-08-01T07:07:50;26.60;55.00
12164;DHT22;6145;50.192;10.064;2022-08-01T07:10:17;26.50;55.20
12164;DHT22;6145;50.192;10.064;2022-08-01T07:12:44;26.40;55.20
12164;DHT22;6145;50.192;10.064;2022-08-01T07:15:11;26.20;55.30
12164;DHT22;6145;50.192;10.064;2022-08-01T07:17:38;26.10;55.50
12164;DHT22;6145;50.192;10.064;2022-08-01T07:20:07;26.10;55.70
12164;DHT22;6145;50.192;10.064;2022-08-01T07:22:35;26.00;55.80
12164;DHT22;6145;50.192;10.064;2022-08-01T07:25:03;26.00;56.00
12164;DHT22;6145;50.192;10.064;2022-08-01T07:27:30;25.90;56.20
12164;DHT22;6145;50.192;10.064;2022-08-01T07:29:57;25.90;56.30
12164;DHT22;6145;50.192;10.064;2022-08-01T07:32:24;25.80;56.40
12164;DHT22;6145;50.192;10.064;2022-08-01T07:34:51;25.90;56.50
12164;DHT22;6145;50.192;10.064;2022-08-01T07:37:18;25.90;56.60
12164;DHT22;6145;50.192;10.064;2022-08-01T07:39:46;25.90;56.70
12164;DHT22;6145;50.192;10.064;2022-08-01T07:42:13;25.90;56.60
12164;DHT22;6145;50.192;10.064;2022-08-01T07:44:39;26.00;57.10
12164;DHT22;6145;50.192;10.064;2022-08-01T07:47:06;26.00;56.90
12164;DHT22;6145;50.192;10.064;2022-08-01T07:49:33;26.10;57.40
12164;DHT22;6145;50.192;10.064;2022-08-01T07:52:00;26.20;57.20
12164;DHT22;6145;50.192;10.064;2022-08-01T07:54:27;26.40;56.70
12164;DHT22;6145;50.192;10.064;2022-08-01T07:56:55;26.50;56.30
12164;DHT22;6145;50.192;10.064;2022-08-01T07:59:22;26.60;55.90
12164;DHT22;6145;50.192;10.064;2022-08-01T08:01:49;26.60;55.60
12164;DHT22;6145;50.192;10.064;2022-08-01T08:04:16;26.70;55.50
12164;DHT22;6145;50.192;10.064;2022-08-01T08:06:43;26.80;55.40
12164;DHT22;6145;50.192;10.064;2022-08-01T08:09:10;26.70;55.20
12164;DHT22;6145;50.192;10.064;2022-08-01T08:11:37;26.80;55.10
12164;DHT22;6145;50.192;10.064;2022-08-01T08:14:05;26.80;55.00
12164;DHT22;6145;50.192;10.064;2022-08-01T08:16:32;26.80;54.90
12164;DHT22;6145;50.192;10.064;2022-08-01T08:18:59;26.80;55.00
12164;DHT22;6145;50.192;10.064;2022-08-01T08:21:26;26.80;55.00
12164;DHT22;6145;50.192;10.064;2022-08-01T08:23:54;26.80;54.90
12164;DHT22;6145;50.192;10.064;2022-08-01T08:26:38;26.80;54.70
12164;DHT22;6145;50.192;10.064;2022-08-01T08:29:07;26.80;54.70
12164;DHT22;6145;50.192;10.064;2022-08-01T08:31:34;26.80;54.90
12164;DHT22;6145;50.192;10.064;2022-08-01T08:34:01;26.80;54.80
12164;DHT22;6145;50.192;10.064;2022-08-01T08:36:28;26.80;54.90
12164;DHT22;6145;50.192;10.064;2022-08-01T08:38:54;26.80;54.70
12164;DHT22;6145;50.192;10.064;2022-08-01T08:41:22;26.90;54.90
12164;DHT22;6145;50.192;10.064;2022-08-01T08:43:49;27.00;54.80
12164;DHT22;6145;50.192;10.064;2022-08-01T08:46:17;27.00;54.70
12164;DHT22;6145;50.192;10.064;2022-08-01T08:48:45;27.00;54.70
12164;DHT22;6145;50.192;10.064;2022-08-01T08:51:12;27.10;54.70
12164;DHT22;6145;50.192;10.064;2022-08-01T08:53:40;27.00;54.50
12164;DHT22;6145;50.192;10.064;2022-08-01T08:56:10;27.20;54.70
12164;DHT22;6145;50.192;10.064;2022-08-01T08:58:38;27.20;54.60
12164;DHT22;6145;50.192;10.064;2022-08-01T09:01:05;27.20;54.50
12164;DHT22;6145;50.192;10.064;2022-08-01T09:03:34;27.40;54.20
12164;DHT22;6145;50.192;10.064;2022-08-01T09:06:01;27.50;54.20
12164;DHT22;6145;50.192;10.064;2022-08-01T09:08:28;27.60;54.20
12164;DHT22;6145;50.192;10.064;2022-08-01T09:10:55;27.70;54.40
12164;DHT22;6145;50.192;10.064;2022-08-01T09:13:22;28.00;54.40
12164;DHT22;6145;50.192;10.064;2022-08-01T09:15:50;28.30;54.00
12164;DHT22;6145;50.192;10.064;2022-08-01T09:18:30;28.60;53.60
12164;DHT22;6145;50.192;10.064;2022-08-01T09:21:12;28.90;52.90
12164;DHT22;6145;50.192;10.064;2022-08-01T09:23:42;29.10;52.00
12164;DHT22;6145;50.192;10.064;2022-08-01T09:26:10;29.30;50.90
12164;DHT22;6145;50.192;10.064;2022-08-01T09:28:37;29.30;50.50
12164;DHT22;6145;50.192;10.064;2022-08-01T09:31:06;29.40;50.00
12164;DHT22;6145;50.192;10.064;2022-08-01T09:33:51;29.40;49.90
12164;DHT22;6145;50.192;10.064;2022-08-01T09:36:22;29.50;49.50
12164;DHT22;6145;50.192;10.064;2022-08-01T09:38:49;29.50;49.30
12164;DHT22;6145;50.192;10.064;2022-08-01T09:41:16;29.60;49.60
12164;DHT22;6145;50.192;10.064;2022-08-01T09:43:49;29.70;49.60
12164;DHT22;6145;50.192;10.064;2022-08-01T09:46:17;30.00;50.20
12164;DHT22;6145;50.192;10.064;2022-08-01T09:48:57;30.30;49.40
12164;DHT22;6145;50.192;10.064;2022-08-01T09:51:31;30.70;49.20
12164;DHT22;6145;50.192;10.064;2022-08-01T09:53:59;31.00;48.60
12164;DHT22;6145;50.192;10.064;2022-08-01T09:56:26;31.20;48.00
12164;DHT22;6145;50.192;10.064;2022-08-01T09:59:01;31.40;47.30
12164;DHT22;6145;50.192;10.064;2022-08-01T10:01:29;31.50;46.80
12164;DHT22;6145;50.192;10.064;2022-08-01T10:04:10;31.60;46.20
12164;DHT22;6145;50.192;10.064;2022-08-01T10:06:39;31.70;45.30
12164;DHT22;6145;50.192;10.064;2022-08-01T10:09:08;31.70;44.90
12164;DHT22;6145;50.192;10.064;2022-08-01T10:11:36;31.80;44.60
12164;DHT22;6145;50.192;10.064;2022-08-01T10:14:05;31.80;44.30
12164;DHT22;6145;50.192;10.064;2022-08-01T10:16:34;31.70;44.00
12164;DHT22;6145;50.192;10.064;2022-08-01T10:19:02;31.70;43.60
12164;DHT22;6145;50.192;10.064;2022-08-01T10:21:29;31.50;43.40
12164;DHT22;6145;50.192;10.064;2022-08-01T10:24:01;31.40;43.50
12164;DHT22;6145;50.192;10.064;2022-08-01T10:26:32;31.30;43.30
12164;DHT22;6145;50.192;10.064;2022-08-01T10:29:00;31.10;43.20
12164;DHT22;6145;50.192;10.064;2022-08-01T10:31:29;30.90;43.40
12164;DHT22;6145;50.192;10.064;2022-08-01T10:33:59;30.70;43.40
12164;DHT22;6145;50.192;10.064;2022-08-01T10:36:27;30.60;43.40
12164;DHT22;6145;50.192;10.064;2022-08-01T10:38:54;30.40;43.40
12164;DHT22;6145;50.192;10.064;2022-08-01T10:41:24;30.30;43.20
12164;DHT22;6145;50.192;10.064;2022-08-01T10:43:51;30.10;43.30
12164;DHT22;6145;50.192;10.064;2022-08-01T10:46:19;30.00;43.60
12164;DHT22;6145;50.192;10.064;2022-08-01T10:48:51;29.90;43.80
12164;DHT22;6145;50.192;10.064;2022-08-01T10:51:22;29.90;44.00
12164;DHT22;6145;50.192;10.064;2022-08-01T10:53:51;30.00;44.20
12164;DHT22;6145;50.192;10.064;2022-08-01T10:56:18;30.10;44.30
12164;DHT22;6145;50.192;10.064;2022-08-01T10:58:48;30.30;44.50
12164;DHT22;6145;50.192;10.064;2022-08-01T11:01:24;30.60;43.90
12164;DHT22;6145;50.192;10.064;2022-08-01T11:04:13;30.90;43.30
12164;DHT22;6145;50.192;10.064;2022-08-01T11:06:50;31.20;42.90
12164;DHT22;6145;50.192;10.064;2022-08-01T11:09:30;31.50;42.70
12164;DHT22;6145;50.192;10.064;2022-08-01T11:12:00;31.90;42.50
12164;DHT22;6145;50.192;10.064;2022-08-01T11:14:30;32.00;41.80
12164;DHT22;6145;50.192;10.064;2022-08-01T11:20:08;32.30;40.70
12164;DHT22;6145;50.192;10.064;2022-08-01T11:26:09;32.20;40.30
12164;DHT22;6145;50.192;10.064;2022-08-01T11:28:37;32.10;40.50
12164;DHT22;6145;50.192;10.064;2022-08-01T11:31:28;31.90;40.50
12164;DHT22;6145;50.192;10.064;2022-08-01T11:33:57;32.00;40.80
12164;DHT22;6145;50.192;10.064;2022-08-01T11:36:25;32.10;40.60
12164;DHT22;6145;50.192;10.064;2022-08-01T11:39:14;32.20;40.20
12164;DHT22;6145;50.192;10.064;2022-08-01T11:41:42;32.30;40.00
12164;DHT22;6145;50.192;10.064;2022-08-01T11:44:11;32.40;39.90
12164;DHT22;6145;50.192;10.064;2022-08-01T11:46:54;32.50;39.60
12164;DHT22;6145;50.192;10.064;2022-08-01T11:49:33;32.70;39.40
12164;DHT22;6145;50.192;10.064;2022-08-01T11:52:04;32.90;39.00
12164;DHT22;6145;50.192;10.064;2022-08-01T11:54:33;33.10;39.60
12164;DHT22;6145;50.192;10.064;2022-08-01T11:57:03;33.30;39.00
12164;DHT22;6145;50.192;10.064;2022-08-01T11:59:36;33.60;37.90
12164;DHT22;6145;50.192;10.064;2022-08-01T12:02:15;33.80;37.80
12164;DHT22;6145;50.192;10.064;2022-08-01T12:04:47;34.10;37.70
12164;DHT22;6145;50.192;10.064;2022-08-01T12:07:14;34.30;36.70
12164;DHT22;6145;50.192;10.064;2022-08-01T12:09:41;34.40;36.40
12164;DHT22;6145;50.192;10.064;2022-08-01T12:12:08;34.70;36.20
12164;DHT22;6145;50.192;10.064;2022-08-01T12:14:35;34.70;35.10
12164;DHT22;6145;50.192;10.064;2022-08-01T12:17:02;34.70;35.00
12164;DHT22;6145;50.192;10.064;2022-08-01T12:19:30;34.60;34.60
12164;DHT22;6145;50.192;10.064;2022-08-01T12:22:12;34.60;34.70
12164;DHT22;6145;50.192;10.064;2022-08-01T12:24:41;34.50;34.40
12164;DHT22;6145;50.192;10.064;2022-08-01T12:27:09;34.50;34.70
12164;DHT22;6145;50.192;10.064;2022-08-01T12:29:39;34.80;35.00
12164;DHT22;6145;50.192;10.064;2022-08-01T12:32:25;35.00;34.80
12164;DHT22;6145;50.192;10.064;2022-08-01T12:34:54;35.20;33.90
12164;DHT22;6145;50.192;10.064;2022-08-01T12:37:22;35.50;33.00
12164;DHT22;6145;50.192;10.064;2022-08-01T12:39:49;35.60;32.50
12164;DHT22;6145;50.192;10.064;2022-08-01T12:42:16;35.80;32.50
12164;DHT22;6145;50.192;10.064;2022-08-01T12:44:45;36.00;32.40
12164;DHT22;6145;50.192;10.064;2022-08-01T12:47:13;36.10;32.00
12164;DHT22;6145;50.192;10.064;2022-08-01T12:49:42;36.10;31.60
12164;DHT22;6145;50.192;10.064;2022-08-01T12:52:11;36.00;31.50
12164;DHT22;6145;50.192;10.064;2022-08-01T12:57:44;35.80;31.30
12164;DHT22;6145;50.192;10.064;2022-08-01T13:00:18;35.50;31.50
12164;DHT22;6145;50.192;10.064;2022-08-01T13:02:47;35.30;31.70
12164;DHT22;6145;50.192;10.064;2022-08-01T13:05:14;35.10;32.00
12164;DHT22;6145;50.192;10.064;2022-08-01T13:07:48;34.90;32.40
12164;DHT22;6145;50.192;10.064;2022-08-01T13:10:25;34.70;32.70
12164;DHT22;6145;50.192;10.064;2022-08-01T13:12:54;34.50;33.90
12164;DHT22;6145;50.192;10.064;2022-08-01T13:15:24;34.30;33.40
12164;DHT22;6145;50.192;10.064;2022-08-01T13:17:52;34.10;33.80
12164;DHT22;6145;50.192;10.064;2022-08-01T13:20:24;33.90;34.00
12164;DHT22;6145;50.192;10.064;2022-08-01T13:22:53;33.80;34.30
12164;DHT22;6145;50.192;10.064;2022-08-01T13:25:20;33.60;34.40
12164;DHT22;6145;50.192;10.064;2022-08-01T13:27:47;33.50;34.50
12164;DHT22;6145;50.192;10.064;2022-08-01T13:30:15;33.30;34.50
12164;DHT22;6145;50.192;10.064;2022-08-01T13:32:44;33.10;34.50
12164;DHT22;6145;50.192;10.064;2022-08-01T13:35:12;33.00;34.50
12164;DHT22;6145;50.192;10.064;2022-08-01T13:37:40;32.80;34.90
12164;DHT22;6145;50.192;10.064;2022-08-01T13:40:10;32.70;35.00
12164;DHT22;6145;50.192;10.064;2022-08-01T13:42:37;32.60;35.10
12164;DHT22;6145;50.192;10.064;2022-08-01T13:45:05;32.50;35.20
12164;DHT22;6145;50.192;10.064;2022-08-01T13:47:36;32.40;35.30
12164;DHT22;6145;50.192;10.064;2022-08-01T13:50:03;32.30;35.50
12164;DHT22;6145;50.192;10.064;2022-08-01T13:52:30;32.30;35.70
12164;DHT22;6145;50.192;10.064;2022-08-01T13:54:57;32.20;35.70
12164;DHT22;6145;50.192;10.064;2022-08-01T13:57:25;32.20;35.70
12164;DHT22;6145;50.192;10.064;2022-08-01T13:59:52;32.60;35.90
12164;DHT22;6145;50.192;10.064;2022-08-01T14:02:19;32.10;35.40
12164;DHT22;6145;50.192;10.064;2022-08-01T14:04:46;32.10;35.30
12164;DHT22;6145;50.192;10.064;2022-08-01T14:07:13;32.20;35.20
12164;DHT22;6145;50.192;10.064;2022-08-01T14:09:40;32.20;35.20
12164;DHT22;6145;50.192;10.064;2022-08-01T14:12:07;32.20;35.30
12164;DHT22;6145;50.192;10.064;2022-08-01T14:14:35;32.40;35.50
12164;DHT22;6145;50.192;10.064;2022-08-01T14:17:03;32.50;35.40
12164;DHT22;6145;50.192;10.064;2022-08-01T14:19:30;32.60;35.30
12164;DHT22;6145;50.192;10.064;2022-08-01T14:21:57;32.80;35.20
12164;DHT22;6145;50.192;10.064;2022-08-01T14:24:24;32.90;34.70
12164;DHT22;6145;50.192;10.064;2022-08-01T14:26:51;33.00;34.50
12164;DHT22;6145;50.192;10.064;2022-08-01T14:29:18;33.00;34.20
12164;DHT22;6145;50.192;10.064;2022-08-01T14:31:46;33.00;34.10
12164;DHT22;6145;50.192;10.064;2022-08-01T14:34:13;33.00;34.10
12164;DHT22;6145;50.192;10.064;2022-08-01T14:36:41;32.90;34.00
12164;DHT22;6145;50.192;10.064;2022-08-01T14:39:08;32.80;34.00
12164;DHT22;6145;50.192;10.064;2022-08-01T14:41:34;32.80;34.10
12164;DHT22;6145;50.192;10.064;2022-08-01T14:44:01;32.80;34.00
12164;DHT22;6145;50.192;10.064;2022-08-01T14:46:29;32.80;34.00
12164;DHT22;6145;50.192;10.064;2022-08-01T14:48:57;32.90;34.00
12164;DHT22;6145;50.192;10.064;2022-08-01T14:51:24;32.90;34.10
12164;DHT22;6145;50.192;10.064;2022-08-01T14:53:51;32.90;34.00
12164;DHT22;6145;50.192;10.064;2022-08-01T14:56:18;32.80;34.00
12164;DHT22;6145;50.192;10.064;2022-08-01T14:58:45;32.80;34.00
12164;DHT22;6145;50.192;10.064;2022-08-01T15:01:12;32.80;34.10
12164;DHT22;6145;50.192;10.064;2022-08-01T15:03:38;32.70;34.00
12164;DHT22;6145;50.192;10.064;2022-08-01T15:06:07;32.70;34.10
12164;DHT22;6145;50.192;10.064;2022-08-01T15:08:36;32.60;34.20
12164;DHT22;6145;50.192;10.064;2022-08-01T15:11:03;32.50;34.20
12164;DHT22;6145;50.192;10.064;2022-08-01T15:13:30;32.50;34.20
12164;DHT22;6145;50.192;10.064;2022-08-01T15:15:57;32.40;34.30
12164;DHT22;6145;50.192;10.064;2022-08-01T15:18:24;32.50;34.50
12164;DHT22;6145;50.192;10.064;2022-08-01T15:20:50;32.40;34.50
12164;DHT22;6145;50.192;10.064;2022-08-01T15:23:19;32.50;34.70
12164;DHT22;6145;50.192;10.064;2022-08-01T15:25:46;32.40;34.70
12164;DHT22;6145;50.192;10.064;2022-08-01T15:28:13;32.50;34.80
12164;DHT22;6145;50.192;10.064;2022-08-01T15:30:40;32.40;34.80
12164;DHT22;6145;50.192;10.064;2022-08-01T15:33:07;32.40;34.80
12164;DHT22;6145;50.192;10.064;2022-08-01T15:35:34;32.40;34.80
12164;DHT22;6145;50.192;10.064;2022-08-01T15:38:00;32.40;34.70
12164;DHT22;6145;50.192;10.064;2022-08-01T15:40:28;32.30;34.80
12164;DHT22;6145;50.192;10.064;2022-08-01T15:42:59;32.30;34.90
12164;DHT22;6145;50.192;10.064;2022-08-01T15:45:26;32.20;35.00
12164;DHT22;6145;50.192;10.064;2022-08-01T15:47:54;32.20;35.30
12164;DHT22;6145;50.192;10.064;2022-08-01T15:50:21;32.20;35.50